Time;durP1;ratioP1;P1;durP2;ratioP2;P2;SDS_P1;SDS_P2;PMS_P1;PMS_P2;Temp;Humidity;BMP_temperature;BMP_pressure;BME280_temperature;BME280_humidity;BME280_pressure;Samples;Min_cycle;Max_cycle;Signal;HPM_P1;HPM_P2
2022/10/11 00:01:45;;;;;;;12.07;4.53;;;;;;;13.64;100.00;96113.75;6215917;23;20165;-80
2022/10/11 00:04:10;;;;;;;11.80;4.80;;;;;;;13.65;100.00;96111.94;6215884;23;20210;-80
2022/10/11 00:06:37;;;;;;;11.37;4.70;;;;;;;13.65;100.00;96111.94;6215180;23;20213;-79
2022/10/11 00:09:03;;;;;;;11.23;5.97;;;;;;;13.65;100.00;96109.34;6241266;22;20177;-79
2022/10/11 00:11:29;;;;;;;12.77;6.60;;;;;;;13.64;100.00;96115.53;6215952;23;20600;-79
2022/10/11 00:13:54;;;;;;;8.93;5.80;;;;;;;13.59;100.00;96105.53;6215456;23;20286;-80
2022/10/11 00:16:19;;;;;;;13.07;6.17;;;;;;;13.54;100.00;96103.41;6214887;23;20238;-80
2022/10/11 00:18:45;;;;;;;12.90;6.03;;;;;;;13.47;100.00;96109.38;6214079;23;20222;-82
2022/10/11 00:21:12;;;;;;;10.40;5.77;;;;;;;13.38;100.00;96107.69;6243489;22;20161;-81
2022/10/11 00:23:37;;;;;;;15.60;6.47;;;;;;;13.30;100.00;96121.47;6241910;23;20161;-80
2022/10/11 00:26:05;;;;;;;14.23;6.43;;;;;;;13.25;100.00;96119.31;6218119;23;20184;-82
2022/10/11 00:28:30;;;;;;;11.90;6.73;;;;;;;13.26;100.00;96126.19;6243729;22;20188;-80
2022/10/11 00:30:56;;;;;;;15.03;7.57;;;;;;;13.30;100.00;96134.50;6243007;23;20161;-82
2022/10/11 00:33:21;;;;;;;15.40;8.17;;;;;;;13.26;100.00;96135.78;6217875;23;20240;-81
2022/10/11 00:35:47;;;;;;;15.33;6.90;;;;;;;13.31;100.00;96138.75;6241963;23;20153;-82
2022/10/11 00:38:13;;;;;;;11.80;7.93;;;;;;;13.36;100.00;96143.53;6242728;22;20554;-82
2022/10/11 00:40:38;;;;;;;15.67;8.10;;;;;;;13.38;100.00;96134.56;6243127;23;20181;-80
2022/10/11 00:43:04;;;;;;;16.60;8.40;;;;;;;13.39;100.00;96135.41;6243527;23;20157;-82
2022/10/11 00:45:29;;;;;;;16.37;8.30;;;;;;;13.40;100.00;96134.41;6217079;23;20187;-83
2022/10/11 00:48:07;;;;;;;16.60;7.70;;;;;;;13.40;100.00;96126.59;6244744;22;20177;-82
2022/10/11 00:50:34;;;;;;;15.40;8.00;;;;;;;13.40;100.00;96130.03;6241672;23;20137;-81
2022/10/11 00:53:02;;;;;;;15.17;7.73;;;;;;;13.41;100.00;96128.22;6242976;23;20177;-80
2022/10/11 00:55:30;;;;;;;13.23;8.33;;;;;;;13.39;100.00;96132.78;6217074;23;20587;-82
2022/10/11 00:57:56;;;;;;;17.57;8.27;;;;;;;13.38;100.00;96133.75;6240799;22;20169;-82
2022/10/11 01:00:22;;;;;;;16.33;8.57;;;;;;;13.35;100.00;96140.09;6240681;23;20227;-80
2022/10/11 01:02:47;;;;;;;12.83;8.67;;;;;;;13.35;100.00;96136.69;6241060;23;20149;-82
2022/10/11 01:05:16;;;;;;;17.33;9.27;;;;;;;13.35;100.00;96139.28;6240019;23;20588;-82
2022/10/11 01:07:42;;;;;;;16.77;9.37;;;;;;;13.33;100.00;96137.63;6215157;23;20262;-82
2022/10/11 01:10:07;;;;;;;14.60;9.07;;;;;;;13.36;100.00;96136.53;6240415;23;20153;-82
2022/10/11 01:12:33;;;;;;;14.73;8.87;;;;;;;13.38;100.00;96138.97;6216185;23;20197;-82
2022/10/11 01:15:27;;;;;;;15.07;9.60;;;;;;;13.37;100.00;96140.78;6216485;23;20168;-82
2022/10/11 01:17:59;;;;;;;20.13;10.23;;;;;;;13.40;100.00;96143.06;6238845;22;20173;-82
2022/10/11 01:20:34;;;;;;;18.53;10.10;;;;;;;13.42;100.00;96145.53;6238396;23;20202;-81
2022/10/11 01:23:30;;;;;;;17.67;10.07;;;;;;;13.45;100.00;96150.47;6214461;23;20295;-82
2022/10/11 01:26:08;;;;;;;18.70;10.20;;;;;;;13.45;100.00;96147.84;6212934;23;20162;-82
2022/10/11 01:28:55;;;;;;;16.83;10.63;;;;;;;13.44;100.00;96149.63;6211591;23;20699;-83
2022/10/11 01:31:25;;;;;;;13.50;9.67;;;;;;;13.47;100.00;96143.28;6211529;23;20160;-82
2022/10/11 01:34:46;;;;;;;17.17;11.07;;;;;;;13.48;100.00;96137.09;6211758;23;20177;-82
2022/10/11 01:37:36;;;;;;;19.03;10.60;;;;;;;13.46;100.00;96150.31;6148959;23;20243;-82
2022/10/11 01:40:09;;;;;;;20.23;11.97;;;;;;;13.45;100.00;96148.66;6100972;23;20151;-82
2022/10/11 01:42:36;;;;;;;21.80;13.23;;;;;;;13.49;100.00;96147.38;6125474;23;20163;-82
2022/10/11 01:45:03;;;;;;;19.57;13.40;;;;;;;13.47;100.00;96149.31;6100435;23;20167;-82
2022/10/11 01:47:28;;;;;;;24.33;14.07;;;;;;;13.43;100.00;96144.53;6125164;23;20210;-82
2022/10/11 01:49:59;;;;;;;26.03;14.70;;;;;;;13.48;100.00;96144.94;6124858;23;20617;-82
2022/10/11 01:52:26;;;;;;;23.57;15.47;;;;;;;13.46;100.00;96146.88;6100654;23;20163;-82
2022/10/11 01:55:23;;;;;;;25.03;14.47;;;;;;;13.39;100.00;96149.25;6149399;23;20151;-82
2022/10/11 01:58:04;;;;;;;23.13;14.40;;;;;;;13.41;100.00;96149.91;6146335;23;20171;-81
2022/10/11 02:01:09;;;;;;;24.37;14.47;;;;;;;13.46;100.00;96145.09;6147375;23;20629;-83
2022/10/11 02:04:00;;;;;;;30.37;15.83;;;;;;;13.40;100.00;96139.63;6070458;23;20192;-81
2022/10/11 02:06:36;;;;;;;23.33;14.70;;;;;;;13.40;100.00;96139.63;6122044;23;20271;-82
2022/10/11 02:09:11;;;;;;;25.73;16.33;;;;;;;13.33;100.00;96142.03;6123730;23;20186;-84
2022/10/11 02:11:37;;;;;;;31.33;19.93;;;;;;;13.21;100.00;96133.63;6204132;22;20173;-83
2022/10/11 02:14:11;;;;;;;29.53;19.10;;;;;;;13.18;100.00;96133.91;6187521;23;20227;-83
2022/10/11 02:16:42;;;;;;;36.10;20.03;;;;;;;13.20;100.00;96136.38;6211496;23;20150;-83
2022/10/11 02:19:08;;;;;;;42.23;22.80;;;;;;;13.15;100.00;96143.78;6209941;23;20200;-83
2022/10/11 02:21:37;;;;;;;35.73;22.60;;;;;;;13.16;100.00;96143.63;6211624;23;20605;-83
2022/10/11 02:24:12;;;;;;;35.57;21.13;;;;;;;13.10;100.00;96144.25;6211439;23;20157;-82
2022/10/11 02:26:40;;;;;;;35.57;20.07;;;;;;;13.13;100.00;96143.94;6212088;23;20579;-82
2022/10/11 02:29:06;;;;;;;32.03;19.37;;;;;;;13.11;100.00;96138.06;6211274;23;20182;-83
2022/10/11 02:31:33;;;;;;;34.63;20.43;;;;;;;13.04;100.00;96137.81;6186506;23;20157;-83
2022/10/11 02:34:23;;;;;;;40.07;21.93;;;;;;;12.98;100.00;96137.59;6211619;23;20162;-83
2022/10/11 02:37:26;;;;;;;35.20;21.27;;;;;;;13.03;100.00;96144.00;6208906;23;20291;-83
2022/10/11 02:39:55;;;;;;;33.30;20.43;;;;;;;13.00;100.00;96140.91;6101925;23;20161;-81
2022/10/11 02:42:27;;;;;;;32.03;20.23;;;;;;;13.04;100.00;96142.22;6126068;23;20156;-81
2022/10/11 02:44:59;;;;;;;33.13;21.83;;;;;;;12.98;100.00;96142.81;6127617;23;20170;-82
2022/10/11 02:47:28;;;;;;;37.60;21.43;;;;;;;13.00;100.00;96144.31;6151965;23;20191;-82
2022/10/11 02:49:54;;;;;;;42.17;21.73;;;;;;;12.92;100.00;96138.19;6127279;23;20558;-82
2022/10/11 02:52:19;;;;;;;38.70;23.20;;;;;;;12.89;100.00;96144.50;6127404;23;20268;-81
2022/10/11 02:54:44;;;;;;;40.63;23.07;;;;;;;12.96;100.00;96140.34;6126658;23;20546;-82
2022/10/11 02:57:10;;;;;;;40.37;23.87;;;;;;;12.96;100.00;96132.53;6152767;23;20206;-82
2022/10/11 02:59:35;;;;;;;45.37;23.83;;;;;;;12.92;100.00;96140.81;6102671;23;20241;-81
2022/10/11 03:02:00;;;;;;;37.47;23.37;;;;;;;12.98;100.00;96143.63;6127213;23;20194;-81
2022/10/11 03:04:25;;;;;;;38.40;23.83;;;;;;;12.94;100.00;96150.09;6102843;23;20159;-82
2022/10/11 03:06:51;;;;;;;44.70;24.97;;;;;;;12.96;100.00;96150.78;6126648;23;20163;-81
2022/10/11 03:09:16;;;;;;;40.53;24.00;;;;;;;12.97;100.00;96154.19;6127743;23;20186;-81
2022/10/11 03:11:41;;;;;;;41.00;24.03;;;;;;;12.97;100.00;96155.03;6103228;23;20173;-81
2022/10/11 03:14:07;;;;;;;42.57;24.40;;;;;;;13.01;100.00;96150.34;6203649;23;20188;-81
2022/10/11 03:16:32;;;;;;;40.53;23.90;;;;;;;12.98;100.00;96148.00;6212389;23;20485;-81
2022/10/11 03:18:57;;;;;;;38.37;23.87;;;;;;;12.89;100.00;96159.31;6187277;23;20189;-81
2022/10/11 03:21:24;;;;;;;41.13;24.33;;;;;;;12.96;100.00;96156.00;6212800;23;20161;-81
2022/10/11 03:23:49;;;;;;;44.17;23.10;;;;;;;12.94;100.00;96162.31;6212275;23;20154;-81
2022/10/11 03:26:14;;;;;;;42.00;23.87;;;;;;;12.90;100.00;96155.78;6186071;23;20189;-81
2022/10/11 03:28:40;;;;;;;36.20;23.83;;;;;;;12.80;100.00;96160.22;6211726;23;20523;-81
2022/10/11 03:31:05;;;;;;;34.97;25.10;;;;;;;12.83;100.00;96162.53;6211640;23;20161;-81
2022/10/11 03:33:30;;;;;;;42.67;26.30;;;;;;;12.91;100.00;96157.41;6187126;23;20180;-81
2022/10/11 03:35:56;;;;;;;40.53;25.13;;;;;;;12.77;100.00;96163.94;6211355;23;20154;-81
2022/10/11 03:38:21;;;;;;;40.80;26.83;;;;;;;12.72;100.00;96166.16;6186153;23;20174;-80
2022/10/11 03:40:46;;;;;;;37.17;26.07;;;;;;;12.78;100.00;96160.34;6211607;23;20216;-80
2022/10/11 03:43:12;;;;;;;40.27;25.17;;;;;;;12.83;100.00;96165.16;6211286;23;20166;-81
2022/10/11 03:45:37;;;;;;;41.10;25.83;;;;;;;12.65;100.00;96172.94;6185476;23;20165;-81
2022/10/11 03:48:02;;;;;;;48.97;24.73;;;;;;;12.77;100.00;96164.75;6211376;23;20182;-80
2022/10/11 03:50:28;;;;;;;43.73;25.80;;;;;;;12.75;100.00;96168.47;6210369;23;20162;-81
2022/10/11 03:52:53;;;;;;;38.40;24.87;;;;;;;12.83;100.00;96168.56;6211216;23;20166;-81
2022/10/11 03:55:18;;;;;;;36.73;22.67;;;;;;;12.74;100.00;96172.06;6185403;23;20162;-81
2022/10/11 03:57:44;;;;;;;33.83;22.87;;;;;;;12.73;100.00;96173.84;6211193;23;20171;-81
2022/10/11 04:00:09;;;;;;;41.63;23.63;;;;;;;12.63;100.00;96177.44;6185849;23;20204;-80
2022/10/11 04:02:35;;;;;;;40.93;24.17;;;;;;;12.62;100.00;96175.81;6211472;23;20157;-81
2022/10/11 04:05:01;;;;;;;37.27;24.57;;;;;;;12.54;100.00;96173.91;6210772;23;20250;-80
2022/10/11 04:07:26;;;;;;;40.60;24.27;;;;;;;12.66;100.00;96174.56;6211520;23;20181;-81
2022/10/11 04:09:51;;;;;;;36.57;24.47;;;;;;;12.55;100.00;96174.75;6185931;23;20157;-80
2022/10/11 04:12:17;;;;;;;49.50;25.23;;;;;;;12.63;100.00;96177.44;6212152;23;20494;-81
2022/10/11 04:14:42;;;;;;;40.10;23.17;;;;;;;12.65;100.00;96176.34;6210853;23;20767;-80
2022/10/11 04:17:07;;;;;;;37.20;24.67;;;;;;;12.68;100.00;96189.09;6211189;23;20244;-81
2022/10/11 04:19:32;;;;;;;37.37;23.63;;;;;;;12.66;100.00;96188.41;6185874;23;20632;-81
2022/10/11 04:21:58;;;;;;;43.10;25.13;;;;;;;12.68;100.00;96186.47;6211180;23;20173;-80
2022/10/11 04:24:23;;;;;;;46.80;24.93;;;;;;;12.64;100.00;96184.31;6186094;23;20164;-82
2022/10/11 04:26:48;;;;;;;43.20;24.07;;;;;;;12.69;100.00;96185.50;6185179;23;20162;-81
2022/10/11 04:29:14;;;;;;;41.30;25.57;;;;;;;12.67;100.00;96187.44;6211077;23;20504;-80
2022/10/11 04:31:39;;;;;;;35.47;23.17;;;;;;;12.72;100.00;96185.22;6185898;23;20166;-81
2022/10/11 04:34:04;;;;;;;38.57;24.07;;;;;;;12.68;100.00;96183.06;6211248;23;20181;-81
2022/10/11 04:36:31;;;;;;;39.53;24.10;;;;;;;12.59;100.00;96183.91;6185002;23;20162;-80
2022/10/11 04:38:57;;;;;;;46.23;24.93;;;;;;;12.63;100.00;96193.06;6185706;23;20170;-81
2022/10/11 04:41:22;;;;;;;39.53;24.50;;;;;;;12.65;100.00;96192.00;6185873;23;20168;-80
2022/10/11 04:43:47;;;;;;;41.13;25.07;;;;;;;12.65;100.00;96198.97;6186059;23;20162;-81
2022/10/11 04:46:13;;;;;;;45.47;24.73;;;;;;;12.68;100.00;96201.28;6185276;23;20169;-81
2022/10/11 04:48:38;;;;;;;39.53;26.37;;;;;;;12.42;100.00;96204.53;6185396;23;20190;-80
2022/10/11 04:51:04;;;;;;;42.10;26.63;;;;;;;12.37;100.00;96198.16;6209284;23;20779;-80
2022/10/11 04:53:29;;;;;;;40.53;26.07;;;;;;;12.38;100.00;96200.59;6213833;23;20216;-81
2022/10/11 04:55:59;;;;;;;34.90;24.60;;;;;;;12.32;100.00;96203.75;6241198;22;20158;-82
2022/10/11 04:58:25;;;;;;;34.93;23.67;;;;;;;12.30;100.00;96208.31;6191744;23;20197;-81
2022/10/11 05:00:51;;;;;;;40.60;25.07;;;;;;;12.35;100.00;96202.66;6215660;23;20217;-82
2022/10/11 05:03:16;;;;;;;41.53;27.77;;;;;;;12.17;100.00;96205.16;6189708;23;20237;-82
2022/10/11 05:05:41;;;;;;;42.70;27.17;;;;;;;12.30;100.00;96212.69;6188799;23;20162;-82
2022/10/11 05:08:07;;;;;;;45.67;28.23;;;;;;;12.38;100.00;96223.22;6214451;23;20185;-82
2022/10/11 05:10:32;;;;;;;48.40;29.30;;;;;;;12.30;100.00;96215.28;6214489;23;20169;-82
2022/10/11 05:12:57;;;;;;;47.90;28.40;;;;;;;12.39;100.00;96217.03;6216582;23;20154;-82
2022/10/11 05:15:22;;;;;;;44.87;28.53;;;;;;;12.26;100.00;96219.94;6190129;23;20181;-83
2022/10/11 05:17:48;;;;;;;43.70;29.17;;;;;;;12.36;100.00;96220.72;6216238;23;20165;-81
2022/10/11 05:20:13;;;;;;;47.83;29.30;;;;;;;12.42;100.00;96219.34;6190588;23;20184;-82
2022/10/11 05:22:38;;;;;;;44.80;28.03;;;;;;;12.43;100.00;96215.78;6215851;23;20165;-83
2022/10/11 05:25:04;;;;;;;38.63;28.00;;;;;;;12.41;100.00;96222.94;6213088;23;20251;-82
2022/10/11 05:27:29;;;;;;;51.43;29.57;;;;;;;12.33;100.00;96228.03;6215025;23;20213;-81
2022/10/11 05:29:54;;;;;;;48.37;29.20;;;;;;;12.24;100.00;96224.47;6217604;23;20158;-81
2022/10/11 05:32:20;;;;;;;49.47;27.87;;;;;;;12.23;100.00;96233.25;6215705;23;20219;-82
2022/10/11 05:34:45;;;;;;;50.23;30.17;;;;;;;12.31;100.00;96233.38;6214485;23;20158;-81
2022/10/11 05:37:10;;;;;;;54.17;29.93;;;;;;;12.00;100.00;96237.94;6189823;23;20153;-81
2022/10/11 05:39:36;;;;;;;55.63;30.80;;;;;;;12.16;100.00;96230.38;6189215;23;20193;-82
2022/10/11 05:42:01;;;;;;;53.33;30.17;;;;;;;12.11;100.00;96237.00;6214309;23;20530;-82
2022/10/11 05:44:26;;;;;;;49.27;29.43;;;;;;;12.08;100.00;96245.06;6189282;23;20216;-82
2022/10/11 05:46:52;;;;;;;53.63;30.77;;;;;;;11.84;100.00;96238.53;6213761;23;20646;-81
2022/10/11 05:49:17;;;;;;;51.50;32.73;;;;;;;11.85;100.00;96241.97;6214246;23;20174;-82
2022/10/11 05:51:42;;;;;;;52.37;32.57;;;;;;;11.99;100.00;96246.72;6214310;23;20170;-80
2022/10/11 05:54:08;;;;;;;57.53;32.13;;;;;;;12.12;100.00;96239.47;6214327;23;20189;-81
2022/10/11 05:56:33;;;;;;;63.93;34.37;;;;;;;12.09;100.00;96257.13;6187318;23;20165;-81
2022/10/11 05:58:58;;;;;;;62.90;35.13;;;;;;;12.07;100.00;96257.25;6213671;23;20174;-80
2022/10/11 06:01:25;;;;;;;55.10;33.10;;;;;;;12.15;100.00;96253.97;6214749;23;20675;-81
2022/10/11 06:03:51;;;;;;;61.80;35.03;;;;;;;12.07;100.00;96259.88;6214765;23;20302;-82
2022/10/11 06:06:17;;;;;;;63.67;35.27;;;;;;;12.05;100.00;96256.59;6188336;23;20168;-81
2022/10/11 06:08:45;;;;;;;53.17;32.30;;;;;;;12.11;100.00;96268.25;6215304;23;20217;-81
2022/10/11 06:11:16;;;;;;;57.87;33.20;;;;;;;11.96;100.00;96265.22;6212175;23;20150;-81
2022/10/11 06:13:42;;;;;;;52.80;32.87;;;;;;;11.86;100.00;96267.03;6187945;23;20185;-82
2022/10/11 06:16:08;;;;;;;53.23;31.87;;;;;;;12.07;100.00;96272.88;6188043;23;20614;-81
2022/10/11 06:18:33;;;;;;;52.60;33.50;;;;;;;12.06;100.00;96275.63;6187724;23;20858;-82
2022/10/11 06:20:58;;;;;;;58.23;35.20;;;;;;;11.96;100.00;96272.22;6187748;23;20161;-81
2022/10/11 06:23:24;;;;;;;52.83;33.47;;;;;;;11.97;100.00;96273.88;6187754;23;20161;-82
2022/10/11 06:26:07;;;;;;;56.47;33.47;;;;;;;11.95;100.00;96271.41;6212037;23;20180;-81
2022/10/11 06:28:33;;;;;;;58.47;34.20;;;;;;;11.95;100.00;96284.41;6210471;23;20269;-81
2022/10/11 06:30:59;;;;;;;67.10;34.17;;;;;;;11.93;100.00;96282.88;6187006;23;20592;-81
2022/10/11 06:33:24;;;;;;;56.53;33.80;;;;;;;11.99;100.00;96290.97;6187078;23;20173;-81
2022/10/11 06:35:56;;;;;;;55.47;33.33;;;;;;;11.91;100.00;96283.84;6211724;23;20642;-81
2022/10/11 06:38:22;;;;;;;56.07;33.33;;;;;;;11.84;100.00;96287.16;6187067;23;20660;-81
2022/10/11 06:40:48;;;;;;;61.97;34.27;;;;;;;11.97;100.00;96286.88;6186774;23;20166;-82
2022/10/11 06:43:13;;;;;;;57.17;35.07;;;;;;;12.06;100.00;96291.25;6187242;23;20469;-81
2022/10/11 06:45:39;;;;;;;59.77;33.63;;;;;;;12.12;100.00;96295.91;6177031;23;20162;-81
2022/10/11 06:48:04;;;;;;;63.90;33.57;;;;;;;12.17;100.00;96294.53;6183211;23;20197;-81
2022/10/11 06:50:30;;;;;;;54.83;34.50;;;;;;;12.12;100.00;96294.13;6209207;23;20192;-81
2022/10/11 06:52:55;;;;;;;59.43;33.20;;;;;;;12.09;100.00;96297.00;6210493;23;20506;-82
2022/10/11 06:55:21;;;;;;;56.13;31.93;;;;;;;12.10;100.00;96303.88;6209958;23;20138;-81
2022/10/11 06:57:46;;;;;;;53.50;30.37;;;;;;;12.24;100.00;96304.38;6210857;23;20166;-81
2022/10/11 07:00:12;;;;;;;46.03;29.93;;;;;;;12.24;100.00;96299.19;6185325;23;20267;-81
2022/10/11 07:02:37;;;;;;;54.13;30.93;;;;;;;12.27;100.00;96304.09;6210745;23;20162;-82
2022/10/11 07:05:03;;;;;;;46.80;31.23;;;;;;;12.29;100.00;96303.03;6209823;23;20538;-81
2022/10/11 07:07:28;;;;;;;50.07;31.07;;;;;;;12.31;100.00;96310.69;6210757;23;20546;-81
2022/10/11 07:09:53;;;;;;;56.93;33.00;;;;;;;12.31;100.00;96310.69;6185602;23;20208;-81
2022/10/11 07:12:19;;;;;;;49.67;30.47;;;;;;;12.39;100.00;96318.63;6184806;23;20220;-81
2022/10/11 07:14:45;;;;;;;51.03;32.27;;;;;;;12.44;100.00;96326.81;6184715;23;20523;-82
2022/10/11 07:17:10;;;;;;;48.60;30.57;;;;;;;12.44;100.00;96327.66;6210572;23;20157;-82
2022/10/11 07:19:35;;;;;;;51.60;30.60;;;;;;;12.44;100.00;96329.44;6185228;23;20181;-81
2022/10/11 07:22:00;;;;;;;51.40;31.33;;;;;;;12.16;100.00;96329.31;6210524;23;20161;-81
2022/10/11 07:24:26;;;;;;;42.57;29.73;;;;;;;12.36;100.00;96329.31;6210557;23;20158;-81
2022/10/11 07:26:51;;;;;;;41.57;27.60;;;;;;;12.32;100.00;96333.16;6211321;23;20158;-81
2022/10/11 07:29:16;;;;;;;43.70;29.87;;;;;;;12.23;100.00;96334.00;6212225;23;20197;-81
2022/10/11 07:31:42;;;;;;;52.97;28.97;;;;;;;12.24;100.00;96335.63;6210120;23;20503;-81
2022/10/11 07:34:08;;;;;;;47.90;29.20;;;;;;;12.23;100.00;96339.19;6210268;23;20600;-82
2022/10/11 07:36:34;;;;;;;51.83;30.30;;;;;;;11.90;100.00;96333.44;6185118;23;20599;-81
2022/10/11 07:38:59;;;;;;;50.73;30.63;;;;;;;11.88;100.00;96341.41;6211632;23;20288;-81
2022/10/11 07:41:24;;;;;;;48.73;31.03;;;;;;;12.08;100.00;96330.97;6185908;23;20166;-81
2022/10/11 07:43:50;;;;;;;52.63;31.30;;;;;;;11.63;100.00;96341.88;6210730;23;20624;-81
2022/10/11 07:46:17;;;;;;;55.37;31.10;;;;;;;11.95;100.00;96336.47;6184020;23;20505;-82
2022/10/11 07:48:42;;;;;;;60.17;35.07;;;;;;;11.83;100.00;96340.16;6185316;23;20189;-81
2022/10/11 07:51:10;;;;;;;57.57;34.50;;;;;;;11.94;100.00;96347.03;6234327;22;20142;-81
2022/10/11 07:53:46;;;;;;;132.30;35.20;;;;;;;11.75;100.00;96351.22;6195852;23;20184;-83
2022/10/11 07:56:14;;;;;;;69.47;33.40;;;;;;;11.87;100.00;96347.56;6213478;23;20149;-84
2022/10/11 07:58:40;;;;;;;109.10;34.70;;;;;;;12.09;100.00;96351.66;6215280;23;20487;-83
2022/10/11 08:01:05;;;;;;;67.00;34.93;;;;;;;12.23;100.00;96353.03;6187914;23;20191;-83
2022/10/11 08:03:31;;;;;;;63.53;34.00;;;;;;;12.26;100.00;96339.72;6213031;23;20150;-83
2022/10/11 08:06:05;;;;;;;61.53;33.13;;;;;;;12.31;100.00;96352.34;6212030;23;20173;-83
2022/10/11 08:08:30;;;;;;;59.40;32.97;;;;;;;12.15;100.00;96348.53;6212759;23;20249;-83
2022/10/11 08:10:56;;;;;;;58.67;32.37;;;;;;;12.01;100.00;96350.69;6213839;23;20162;-83
2022/10/11 08:13:22;;;;;;;58.10;32.37;;;;;;;12.00;100.00;96360.28;6213824;23;20154;-82
2022/10/11 08:15:47;;;;;;;59.20;31.10;;;;;;;12.02;100.00;96353.19;6213799;23;20165;-83
2022/10/11 08:18:12;;;;;;;55.87;32.30;;;;;;;11.96;100.00;96364.16;6187550;23;20577;-83
2022/10/11 08:20:38;;;;;;;53.57;30.33;;;;;;;11.99;100.00;96350.84;6187726;23;20604;-83
2022/10/11 08:23:03;;;;;;;50.03;30.40;;;;;;;12.07;100.00;96356.19;6214994;23;20197;-83
2022/10/11 08:25:29;;;;;;;59.30;31.37;;;;;;;12.34;100.00;96362.50;6185366;23;20165;-84
2022/10/11 08:27:54;;;;;;;52.70;29.83;;;;;;;12.17;100.00;96366.59;6214798;23;20205;-83
2022/10/11 08:30:20;;;;;;;57.13;30.73;;;;;;;12.39;100.00;96362.91;6186511;23;20189;-82
2022/10/11 08:32:45;;;;;;;48.50;31.27;;;;;;;12.41;100.00;96359.19;6187472;23;20169;-83
2022/10/11 08:35:10;;;;;;;51.73;28.83;;;;;;;12.53;100.00;96367.66;6212137;23;20158;-83
2022/10/11 08:37:35;;;;;;;45.83;28.63;;;;;;;12.36;100.00;96363.16;6212006;23;20169;-83
2022/10/11 08:40:02;;;;;;;46.23;27.73;;;;;;;12.31;100.00;96362.78;6211380;23;20470;-83
2022/10/11 08:42:34;;;;;;;46.10;27.80;;;;;;;12.29;100.00;96351.69;6213254;23;20158;-83
2022/10/11 08:45:03;;;;;;;51.37;29.33;;;;;;;12.37;100.00;96357.03;6186044;23;20169;-84
2022/10/11 08:47:36;;;;;;;54.97;29.23;;;;;;;12.42;100.00;96354.81;6213409;23;20185;-83
2022/10/11 08:50:07;;;;;;;63.13;30.43;;;;;;;12.35;100.00;96354.53;6188607;23;20153;-82
2022/10/11 08:52:53;;;;;;;49.03;29.63;;;;;;;12.34;100.00;96357.28;6188292;23;20142;-82
2022/10/11 08:55:38;;;;;;;59.20;30.70;;;;;;;12.24;100.00;96359.91;6211830;23;20240;-83
2022/10/11 08:58:04;;;;;;;51.73;31.27;;;;;;;12.11;100.00;96356.75;6187601;23;20173;-82
2022/10/11 09:00:32;;;;;;;52.70;31.90;;;;;;;11.92;100.00;96357.53;6213014;23;20197;-83
2022/10/11 09:03:27;;;;;;;59.77;31.27;;;;;;;11.95;100.00;96364.28;6213213;23;20257;-83
2022/10/11 09:06:02;;;;;;;54.87;32.30;;;;;;;11.93;100.00;96364.44;6187396;23;20150;-82
2022/10/11 09:08:52;;;;;;;55.87;33.73;;;;;;;12.18;100.00;96363.84;6212714;23;20275;-81
2022/10/11 09:11:32;;;;;;;58.93;32.37;;;;;;;12.12;100.00;96361.00;6213935;23;20146;-83
2022/10/11 09:14:13;;;;;;;52.00;31.50;;;;;;;12.46;100.00;96359.63;6214266;23;20150;-83
2022/10/11 09:16:46;;;;;;;53.40;33.23;;;;;;;12.59;100.00;96361.91;6187665;23;20228;-83
2022/10/11 09:19:46;;;;;;;57.13;32.40;;;;;;;12.39;100.00;96361.13;6214673;23;20197;-84
2022/10/11 09:22:28;;;;;;;53.17;31.03;;;;;;;12.43;100.00;96361.66;6127774;23;20202;-83
2022/10/11 09:25:28;;;;;;;53.83;32.23;;;;;;;12.64;100.00;96366.72;6204681;23;20154;-83
2022/10/11 09:28:01;;;;;;;48.10;29.27;;;;;;;12.59;100.00;96366.31;6189951;23;20194;-84
2022/10/11 09:30:27;;;;;;;44.70;29.23;;;;;;;12.50;100.00;96367.97;6215111;23;20138;-83
2022/10/11 09:33:01;;;;;;;49.73;29.10;;;;;;;12.55;100.00;96370.16;6187367;23;20153;-84
2022/10/11 09:35:27;;;;;;;41.90;27.43;;;;;;;12.52;100.00;96366.03;6213370;23;20161;-84
2022/10/11 09:38:17;;;;;;;42.73;28.70;;;;;;;12.69;100.00;96370.53;6188943;23;20654;-82
2022/10/11 09:41:16;;;;;;;41.50;26.67;;;;;;;12.53;100.00;96370.28;6213846;23;20496;-83
2022/10/11 09:43:47;;;;;;;40.17;25.30;;;;;;;12.61;100.00;96367.78;6213589;23;20165;-83
2022/10/11 09:46:20;;;;;;;41.73;25.97;;;;;;;12.43;100.00;96367.69;6212853;23;20161;-84
2022/10/11 09:48:46;;;;;;;40.93;24.57;;;;;;;12.51;100.00;96359.19;6188602;23;20194;-84
2022/10/11 09:51:17;;;;;;;42.43;26.63;;;;;;;12.64;100.00;96367.53;6188997;23;20154;-85
2022/10/11 09:54:03;;;;;;;47.60;25.47;;;;;;;12.57;100.00;96374.25;6213507;23;20177;-83
2022/10/11 09:56:30;;;;;;;38.90;25.10;;;;;;;12.63;100.00;96373.72;6187622;23;20561;-83
2022/10/11 09:59:16;;;;;;;43.57;25.17;;;;;;;12.67;100.00;96372.47;6212777;23;20178;-83
2022/10/11 10:01:43;;;;;;;37.20;24.73;;;;;;;12.55;100.00;96370.16;6218190;23;20142;-83
2022/10/11 10:04:13;;;;;;;40.83;24.57;;;;;;;12.48;100.00;96369.88;6190281;23;20647;-84
2022/10/11 10:06:39;;;;;;;41.47;25.70;;;;;;;12.67;100.00;96369.03;6212545;23;20162;-83
2022/10/11 10:09:27;;;;;;;38.27;25.00;;;;;;;12.81;100.00;96370.34;6187692;23;20202;-83
2022/10/11 10:11:54;;;;;;;40.73;24.97;;;;;;;12.81;100.00;96379.03;6212601;23;20611;-87
2022/10/11 10:14:29;;;;;;;36.87;25.03;;;;;;;12.85;99.92;96375.16;6187610;23;20162;-85
2022/10/11 10:17:00;;;;;;;36.53;24.60;;;;;;;12.92;100.00;96378.03;6186740;23;20169;-83
2022/10/11 10:19:26;;;;;;;38.97;24.40;;;;;;;12.71;99.46;96381.63;6212548;23;20628;-83
2022/10/11 10:21:52;;;;;;;36.43;24.97;;;;;;;12.69;100.00;96386.16;6212610;23;20226;-84
2022/10/11 10:24:38;;;;;;;51.80;24.97;;;;;;;12.73;99.41;96377.13;6187370;23;20604;-83
2022/10/11 10:27:19;;;;;;;36.77;23.63;;;;;;;12.97;99.63;96373.19;6187515;23;20166;-85
2022/10/11 10:30:07;;;;;;;31.70;23.23;;;;;;;12.84;98.39;96373.50;6213040;23;20142;-82
2022/10/11 10:33:11;;;;;;;32.93;21.83;;;;;;;12.75;98.09;96375.19;6213096;23;20157;-83
2022/10/11 10:35:49;;;;;;;32.20;21.47;;;;;;;12.99;97.14;96373.91;6125339;23;20162;-83
2022/10/11 10:38:21;;;;;;;42.83;24.40;;;;;;;13.01;97.08;96385.81;6126904;23;20242;-81
2022/10/11 10:40:50;;;;;;;36.47;23.87;;;;;;;13.02;97.57;96371.81;6125797;23;20242;-84
2022/10/11 10:43:21;;;;;;;31.60;22.60;;;;;;;13.08;97.42;96377.44;6101404;23;20163;-85
2022/10/11 10:46:13;;;;;;;40.43;24.63;;;;;;;13.13;97.24;96386.44;6123605;23;20210;-81
2022/10/11 10:48:56;;;;;;;39.40;23.47;;;;;;;13.14;97.19;96380.28;6150433;23;20249;-83
2022/10/11 10:52:04;;;;;;;36.80;23.63;;;;;;;13.15;97.50;96379.31;6126105;23;20200;-85
2022/10/11 10:54:55;;;;;;;36.70;23.57;;;;;;;12.97;98.74;96370.59;6126181;23;20178;-82
2022/10/11 10:57:51;;;;;;;43.97;24.03;;;;;;;13.08;97.66;96380.03;6124940;23;20167;-81
2022/10/11 11:00:21;;;;;;;35.30;23.63;;;;;;;13.08;97.35;96372.22;6124088;23;20516;-80
2022/10/11 11:02:56;;;;;;;37.60;24.57;;;;;;;13.17;97.85;96374.78;6125809;23;20159;-79
2022/10/11 11:05:50;;;;;;;35.27;25.13;;;;;;;13.22;97.01;96369.97;6124690;23;20162;-79
2022/10/11 11:08:24;;;;;;;50.20;31.87;;;;;;;13.09;97.87;96373.84;6100698;23;20201;-79
2022/10/11 11:10:58;;;;;;;34.90;24.63;;;;;;;13.23;96.90;96379.44;6150356;23;20174;-79
2022/10/11 11:13:32;;;;;;;40.70;25.20;;;;;;;13.26;96.16;96373.13;6211687;23;20199;-78
2022/10/11 11:16:24;;;;;;;33.10;24.03;;;;;;;13.21;95.58;96370.94;6186307;23;20154;-79
2022/10/11 11:18:57;;;;;;;32.37;23.00;;;;;;;12.89;98.52;96365.25;6181290;23;20255;-79
2022/10/11 11:22:00;;;;;;;36.70;22.87;;;;;;;12.96;97.37;96361.13;6211672;23;20146;-78
2022/10/11 11:24:35;;;;;;;36.93;22.43;;;;;;;12.98;97.96;96361.78;6211533;23;20141;-79
2022/10/11 11:27:08;;;;;;;35.13;23.57;;;;;;;12.98;97.65;96360.00;6209006;23;20638;-77